Boa Tyr — LAMU — position and weather

sailwx.info

Track history (hours):
 
Tides and Currents Weather Stations Pressure Air Temp Water Temp Dewpoint Dewpoint Depression Visibility Wind Speed Wind Dir Waves Ship Positions

Boa Tyr

Last reported at 2015-Aug-28 02:28 UTC. Time now 2015-Aug-29 03:10 UTC.
Position N 66°01' E 012°38'.

Length 33 m; draft 5 m.

Type: Tug. MMSI: 258395000.

Date/timePositionNaut miles runAvg speedWind from/ knotsBaromVisibWave heightAir tempDewpointWater temp
2015-Aug-28 02:28N 66°01' E 012°38'14 0.3
2015-Aug-26 09:18N 66°15' E 012°40'2 2.4
2015-Aug-26 08:34N 66°17' E 012°43'0 0.2
2015-Aug-26 07:34N 66°17' E 012°44'0 0.1
2015-Aug-26 06:31N 66°17' E 012°44'0 0.1
2015-Aug-26 05:33N 66°17' E 012°44'3 2.5
2015-Aug-26 04:32N 66°15' E 012°39'  
2015-Aug-21 21:31N 66°07' E 012°46'11 9.3
2015-Aug-21 20:19N 66°18' E 012°56'7 9.2
2015-Aug-21 19:33N 66°25' E 012°58'21 8.7
2015-Aug-21 17:07N 66°45' E 013°14'5 9.0
2015-Aug-21 16:33N 66°48' E 013°24'9 9.1
2015-Aug-21 15:33N 66°49' E 013°47'  
2015-Aug-19 11:31N 66°28' E 012°59'9 9.3
2015-Aug-19 10:33N 66°19' E 012°56'  
Track history (hours):
 
Tides and Currents Weather Stations Pressure Air Temp Water Temp Dewpoint Dewpoint Depression Visibility Wind Speed Wind Dir Waves Ship Positions

Boa Tyr

Last reported at 2015-Aug-28 02:28 UTC. Time now 2015-Aug-29 03:10 UTC.
Position N 66°01' E 012°38'.

Length 33 m; draft 5 m.

Type: Tug. MMSI: 258395000.

Date/timePositionNaut miles runAvg speedWind from/ knotsBaromVisibWave heightAir tempDewpointWater temp
2015-Aug-28 02:28N 66°01' E 012°38'14 0.3
2015-Aug-26 09:18N 66°15' E 012°40'2 2.4
2015-Aug-26 08:34N 66°17' E 012°43'0 0.2
2015-Aug-26 07:34N 66°17' E 012°44'0 0.1
2015-Aug-26 06:31N 66°17' E 012°44'0 0.1
2015-Aug-26 05:33N 66°17' E 012°44'3 2.5
2015-Aug-26 04:32N 66°15' E 012°39'  
2015-Aug-21 21:31N 66°07' E 012°46'11 9.3
2015-Aug-21 20:19N 66°18' E 012°56'7 9.2
2015-Aug-21 19:33N 66°25' E 012°58'21 8.7
2015-Aug-21 17:07N 66°45' E 013°14'5 9.0
2015-Aug-21 16:33N 66°48' E 013°24'9 9.1
2015-Aug-21 15:33N 66°49' E 013°47'  
2015-Aug-19 11:31N 66°28' E 012°59'9 9.3
2015-Aug-19 10:33N 66°19' E 012°56'  

Dump ship's entire track history